Time;durP1;ratioP1;P1;durP2;ratioP2;P2;SDS_P1;SDS_P2;PMS_P1;PMS_P2;Temp;Humidity;BMP_temperature;BMP_pressure;BME280_temperature;BME280_humidity;BME280_pressure;Samples;Min_cycle;Max_cycle;Signal;HPM_P1;HPM_P2
2021/03/04 00:00:24;;;;;;;23.55;14.38;;;;;;;9.29;56.34;102614.21;1766932;81;21315;-46
2021/03/04 00:02:52;;;;;;;21.48;15.18;;;;;;;9.28;56.57;102616.34;1765899;81;21473;-46
2021/03/04 00:05:21;;;;;;;23.65;15.43;;;;;;;9.27;56.64;102610.72;1768391;81;21216;-46
2021/03/04 00:07:49;;;;;;;25.55;15.55;;;;;;;9.27;56.70;102609.42;1768070;81;21326;-46
2021/03/04 00:10:20;;;;;;;26.00;14.68;;;;;;;9.24;56.74;102605.47;1767677;81;21282;-46
2021/03/04 00:12:48;;;;;;;22.13;14.73;;;;;;;9.26;56.69;102599.87;1760805;81;21546;-46
2021/03/04 00:15:20;;;;;;;23.05;14.20;;;;;;;9.25;56.73;102595.55;1766998;81;21165;-47
2021/03/04 00:17:48;;;;;;;23.22;14.35;;;;;;;9.23;56.86;102586.86;1770015;81;21141;-46
2021/03/04 00:20:29;;;;;;;21.50;14.05;;;;;;;9.27;56.79;102582.15;1765811;81;21184;-46
2021/03/04 00:22:57;;;;;;;21.75;14.15;;;;;;;9.27;56.64;102583.45;1681999;85;21216;-47
2021/03/04 00:25:31;;;;;;;19.07;13.35;;;;;;;9.28;56.55;102582.58;1766778;81;21149;-46
2021/03/04 00:27:59;;;;;;;20.10;12.88;;;;;;;9.26;56.47;102577.80;1767679;81;21593;-46
2021/03/04 00:30:27;;;;;;;19.98;13.03;;;;;;;9.26;56.36;102577.80;1764981;81;21176;-46
2021/03/04 00:32:56;;;;;;;19.20;12.18;;;;;;;9.25;56.32;102572.59;1768761;81;21338;-46
2021/03/04 00:35:25;;;;;;;19.05;10.88;;;;;;;9.23;56.36;102567.38;1766495;81;21611;-46
2021/03/04 00:37:53;;;;;;;19.55;12.50;;;;;;;9.23;56.37;102567.38;1769130;81;21291;-46
2021/03/04 00:40:22;;;;;;;19.32;12.05;;;;;;;9.24;56.23;102560.44;1767430;81;21323;-46
2021/03/04 00:42:51;;;;;;;19.17;11.18;;;;;;;9.25;56.08;102557.88;1767809;81;21362;-46
2021/03/04 00:45:22;;;;;;;20.05;11.43;;;;;;;9.24;56.04;102556.12;1769299;80;21306;-46
2021/03/04 00:47:52;;;;;;;17.50;11.57;;;;;;;9.23;55.91;102545.30;1676900;85;21200;-46
2021/03/04 00:50:23;;;;;;;17.82;11.45;;;;;;;9.20;55.93;102541.35;1769304;81;21302;-46
2021/03/04 00:52:51;;;;;;;18.05;11.55;;;;;;;9.28;55.71;102534.94;1767280;81;21580;-46
2021/03/04 00:55:20;;;;;;;15.60;11.05;;;;;;;9.31;55.53;102530.67;1768149;81;21283;-46
2021/03/04 00:57:48;;;;;;;17.07;11.30;;;;;;;9.32;55.39;102525.91;1768057;81;21283;-46
2021/03/04 01:00:18;;;;;;;17.05;10.50;;;;;;;9.27;55.50;102526.30;1764808;81;21124;-46
2021/03/04 01:02:46;;;;;;;15.65;10.85;;;;;;;9.26;55.42;102518.05;1768592;81;21125;-47
2021/03/04 01:05:15;;;;;;;18.92;11.30;;;;;;;9.25;55.31;102522.81;1680457;85;21302;-46
2021/03/04 01:07:45;;;;;;;19.42;11.18;;;;;;;9.23;55.23;102518.03;1770966;81;21579;-46
2021/03/04 01:10:18;;;;;;;14.23;9.48;;;;;;;9.26;55.26;102514.16;1768839;81;21731;-46
2021/03/04 01:12:46;;;;;;;16.70;10.03;;;;;;;9.29;55.22;102512.91;1767664;81;21167;-46
2021/03/04 01:15:17;;;;;;;16.82;10.35;;;;;;;9.30;55.12;102500.34;1764780;81;21144;-46
2021/03/04 01:17:45;;;;;;;17.35;11.40;;;;;;;9.32;55.05;102505.13;1681085;85;21157;-47
2021/03/04 01:20:15;;;;;;;16.02;10.28;;;;;;;9.33;54.92;102499.09;1766620;81;21143;-46
2021/03/04 01:22:44;;;;;;;19.37;10.63;;;;;;;9.31;54.90;102493.42;1767362;81;21141;-46
2021/03/04 01:25:13;;;;;;;16.52;9.98;;;;;;;9.28;54.88;102494.26;1767376;81;21759;-46
2021/03/04 01:27:43;;;;;;;21.20;11.63;;;;;;;9.26;54.88;102480.38;1767902;81;21358;-46
2021/03/04 01:30:15;;;;;;;15.03;9.98;;;;;;;9.24;54.86;102485.98;1755478;81;21197;-46
2021/03/04 01:32:43;;;;;;;20.12;10.93;;;;;;;9.22;54.96;102479.91;1766505;80;21145;-46
2021/03/04 01:35:13;;;;;;;17.05;11.20;;;;;;;9.24;54.93;102476.02;1769268;81;21160;-46
2021/03/04 01:37:42;;;;;;;13.60;9.70;;;;;;;9.25;54.82;102472.16;1769772;81;21287;-46
2021/03/04 01:40:13;;;;;;;16.23;10.50;;;;;;;9.26;54.71;102473.89;1767499;81;21326;-46
2021/03/04 01:42:42;;;;;;;18.00;10.53;;;;;;;9.25;54.64;102470.87;1767227;81;21149;-46
2021/03/04 01:45:11;;;;;;;16.50;10.63;;;;;;;9.23;54.72;102466.08;1766864;81;21149;-46
2021/03/04 01:47:41;;;;;;;20.00;11.60;;;;;;;9.21;54.71;102474.25;1769589;81;21113;-47
2021/03/04 01:50:11;;;;;;;17.87;10.05;;;;;;;9.21;54.74;102465.16;1707748;84;21163;-46
2021/03/04 01:52:39;;;;;;;16.75;10.78;;;;;;;9.21;54.86;102462.56;1761709;81;21141;-45
2021/03/04 01:55:08;;;;;;;16.37;11.05;;;;;;;9.24;54.78;102461.31;1710117;83;21120;-45
2021/03/04 01:57:37;;;;;;;16.42;10.88;;;;;;;9.27;54.59;102459.19;1770214;80;21176;-45
2021/03/04 02:00:06;;;;;;;17.02;10.25;;;;;;;9.27;54.45;102460.06;1756474;81;21141;-46
2021/03/04 02:02:36;;;;;;;17.32;11.90;;;;;;;9.27;54.40;102462.66;1770822;81;21579;-46
2021/03/04 02:05:11;;;;;;;16.27;10.53;;;;;;;9.26;54.43;102464.80;1772881;81;21141;-47
2021/03/04 02:07:56;;;;;;;17.90;10.88;;;;;;;9.23;54.54;102455.69;1762130;81;21541;-47
2021/03/04 02:10:42;;;;;;;18.25;11.70;;;;;;;9.21;54.91;102453.47;1766223;81;21283;-47
2021/03/04 02:13:39;;;;;;;18.20;10.78;;;;;;;9.22;55.17;102453.94;1772927;80;21291;-47
2021/03/04 02:16:24;;;;;;;17.32;11.90;;;;;;;9.24;55.33;102451.34;1763358;81;21266;-46
2021/03/04 02:18:58;;;;;;;19.07;10.20;;;;;;;9.24;55.38;102448.33;1771867;81;21174;-47
2021/03/04 02:21:56;;;;;;;18.70;10.80;;;;;;;9.25;55.36;102440.99;1678275;85;21360;-47
2021/03/04 02:24:42;;;;;;;21.40;11.25;;;;;;;9.25;55.30;102439.70;1678695;85;21192;-47
2021/03/04 02:27:16;;;;;;;18.52;10.78;;;;;;;9.25;55.40;102433.63;1770938;79;23049;-46
2021/03/04 02:29:52;;;;;;;19.30;11.40;;;;;;;9.18;55.57;102432.68;1738744;82;21196;-46
2021/03/04 02:32:23;;;;;;;18.98;11.75;;;;;;;9.18;55.61;102433.98;1743792;82;21585;-46
2021/03/04 02:34:57;;;;;;;16.82;10.48;;;;;;;9.18;55.64;102433.98;1740012;82;21589;-47
2021/03/04 02:37:32;;;;;;;17.98;11.73;;;;;;;9.23;55.72;102433.61;1801995;79;23476;-46
2021/03/04 02:40:01;;;;;;;20.68;11.40;;;;;;;9.17;55.83;102432.22;1788972;80;21588;-46
2021/03/04 02:42:30;;;;;;;20.50;12.78;;;;;;;9.15;55.95;102432.63;1726963;83;21297;-47
2021/03/04 02:44:58;;;;;;;21.73;11.10;;;;;;;9.19;56.08;102432.27;1725034;83;21116;-46
2021/03/04 02:47:27;;;;;;;19.25;12.25;;;;;;;9.20;56.22;102429.67;1720177;83;21164;-46
2021/03/04 02:49:56;;;;;;;22.48;11.45;;;;;;;9.21;56.24;102433.15;1725223;83;21168;-46
2021/03/04 02:52:25;;;;;;;25.88;11.88;;;;;;;9.22;56.14;102427.95;1744128;81;21200;-46
2021/03/04 02:54:54;;;;;;;20.52;11.30;;;;;;;9.23;56.07;102431.02;1725219;83;21170;-46
2021/03/04 02:57:22;;;;;;;23.83;11.95;;;;;;;9.23;56.00;102428.84;1750428;81;21149;-46
2021/03/04 02:59:50;;;;;;;19.25;11.73;;;;;;;9.24;55.96;102430.56;1725622;83;21155;-46
2021/03/04 03:02:19;;;;;;;19.85;11.57;;;;;;;9.24;56.06;102427.55;1737583;82;21176;-47
2021/03/04 03:04:47;;;;;;;22.82;11.40;;;;;;;9.22;56.21;102422.77;1737460;82;21314;-46
2021/03/04 03:07:16;;;;;;;22.25;11.33;;;;;;;9.23;56.26;102420.63;1756762;81;21318;-46
2021/03/04 03:09:46;;;;;;;17.35;11.18;;;;;;;9.27;56.24;102421.52;1725617;83;21197;-47
2021/03/04 03:12:15;;;;;;;20.95;11.12;;;;;;;9.28;56.14;102420.23;1738382;82;21146;-46
2021/03/04 03:14:44;;;;;;;15.30;10.32;;;;;;;9.28;56.11;102414.16;1713950;82;21164;-47
2021/03/04 03:17:13;;;;;;;16.97;10.72;;;;;;;9.27;56.10;102418.50;1748993;81;21201;-46
2021/03/04 03:19:43;;;;;;;21.73;11.20;;;;;;;9.28;56.13;102415.03;1746382;81;21176;-46
2021/03/04 03:22:11;;;;;;;19.62;10.32;;;;;;;9.28;56.25;102411.14;1725240;83;21177;-46
2021/03/04 03:24:40;;;;;;;19.02;12.63;;;;;;;9.28;56.31;102414.16;1746172;81;21215;-47
2021/03/04 03:27:09;;;;;;;20.75;11.50;;;;;;;9.28;56.38;102411.14;1725145;83;21181;-46
2021/03/04 03:29:38;;;;;;;17.57;9.83;;;;;;;9.28;56.44;102412.44;1744885;81;21293;-47
2021/03/04 03:32:07;;;;;;;22.00;11.78;;;;;;;9.26;56.48;102405.05;1746643;81;21172;-46
2021/03/04 03:34:36;;;;;;;24.10;13.10;;;;;;;9.24;56.61;102404.17;1719523;83;21369;-46
2021/03/04 03:37:06;;;;;;;21.07;11.95;;;;;;;9.22;56.78;102394.20;1741846;81;21149;-46
2021/03/04 03:39:34;;;;;;;18.65;11.40;;;;;;;9.22;56.92;102389.00;1738198;82;21178;-46
2021/03/04 03:42:03;;;;;;;26.97;12.13;;;;;;;9.24;56.94;102386.41;1741410;82;21164;-46
2021/03/04 03:44:32;;;;;;;19.45;12.40;;;;;;;9.24;56.87;102379.50;1662569;85;21188;-47
2021/03/04 03:47:02;;;;;;;18.77;11.70;;;;;;;9.26;56.83;102377.78;1741740;82;21330;-46
2021/03/04 03:49:31;;;;;;;24.23;13.08;;;;;;;9.25;56.86;102376.06;1744855;82;21722;-46
2021/03/04 03:52:00;;;;;;;19.70;10.88;;;;;;;9.25;56.96;102372.16;1657896;86;21315;-46
2021/03/04 03:54:29;;;;;;;18.85;12.15;;;;;;;9.26;57.06;102371.70;1743247;82;21699;-46
2021/03/04 03:56:59;;;;;;;18.15;11.70;;;;;;;9.25;57.15;102363.07;1658061;85;21322;-46
2021/03/04 03:59:28;;;;;;;19.32;10.55;;;;;;;9.25;57.28;102362.19;1741029;82;21164;-46
2021/03/04 04:01:56;;;;;;;17.52;11.08;;;;;;;9.24;57.33;102363.03;1741557;82;21152;-47
2021/03/04 04:04:24;;;;;;;22.13;11.88;;;;;;;9.22;57.39;102361.73;1659648;86;21191;-47
2021/03/04 04:06:53;;;;;;;21.40;11.88;;;;;;;9.23;57.38;102358.29;1745608;82;21157;-46
2021/03/04 04:09:22;;;;;;;22.82;12.05;;;;;;;9.22;57.47;102357.83;1660957;86;21581;-46
2021/03/04 04:11:50;;;;;;;25.17;12.23;;;;;;;9.20;57.59;102351.75;1740594;82;21305;-46
2021/03/04 04:14:19;;;;;;;21.52;11.70;;;;;;;9.20;57.67;102351.75;1745052;82;21279;-46
2021/03/04 04:16:48;;;;;;;18.77;10.88;;;;;;;9.20;57.75;102343.96;1649897;85;21200;-46
2021/03/04 04:19:17;;;;;;;21.10;11.68;;;;;;;9.19;57.87;102340.06;1741722;82;21173;-46
2021/03/04 04:21:46;;;;;;;22.62;11.93;;;;;;;9.16;58.02;102333.11;1742929;82;21149;-46
2021/03/04 04:24:14;;;;;;;20.65;12.37;;;;;;;9.15;58.27;102331.34;1744535;82;21722;-46
2021/03/04 04:26:43;;;;;;;18.85;12.13;;;;;;;9.12;58.54;102337.83;1717103;82;21778;-47
2021/03/04 04:29:12;;;;;;;20.52;11.55;;;;;;;9.16;58.58;102342.20;1658464;86;21347;-47
2021/03/04 04:31:40;;;;;;;20.35;12.37;;;;;;;9.15;58.66;102333.95;1745138;82;21327;-48
2021/03/04 04:34:09;;;;;;;21.82;12.00;;;;;;;9.12;58.75;102327.45;1723595;82;21121;-46
2021/03/04 04:36:37;;;;;;;22.15;12.78;;;;;;;9.11;58.96;102324.39;1678464;83;21188;-46
2021/03/04 04:39:06;;;;;;;20.60;12.15;;;;;;;9.11;59.19;102325.69;1771968;81;21144;-46
2021/03/04 04:41:34;;;;;;;25.77;12.93;;;;;;;9.15;59.28;102327.45;1705097;84;21583;-45
2021/03/04 04:44:04;;;;;;;20.60;12.00;;;;;;;9.17;59.30;102325.74;1771905;81;21153;-46
2021/03/04 04:46:33;;;;;;;23.95;12.93;;;;;;;9.18;59.37;102316.23;1709180;84;21261;-46
2021/03/04 04:49:02;;;;;;;23.52;13.53;;;;;;;9.18;59.44;102311.91;1772066;81;21291;-46
2021/03/04 04:51:32;;;;;;;18.67;11.73;;;;;;;9.19;59.54;102317.53;1709233;84;21598;-46
2021/03/04 04:54:01;;;;;;;21.90;13.70;;;;;;;9.20;59.72;102309.32;1763483;80;21279;-46
2021/03/04 04:56:29;;;;;;;22.05;12.40;;;;;;;9.21;59.78;102313.22;1765629;81;21330;-46
2021/03/04 04:58:57;;;;;;;23.60;12.60;;;;;;;9.23;59.83;102311.55;1776327;81;21176;-47
2021/03/04 05:01:26;;;;;;;27.05;13.75;;;;;;;9.25;59.82;102304.63;1778279;81;21145;-46
2021/03/04 05:03:54;;;;;;;22.55;13.28;;;;;;;9.26;59.87;102292.06;1767615;81;21302;-46
2021/03/04 05:06:23;;;;;;;22.77;12.43;;;;;;;9.32;59.78;102289.52;1765989;81;21156;-46
2021/03/04 05:08:51;;;;;;;19.57;12.05;;;;;;;9.36;59.83;102289.98;1710418;83;21156;-47
2021/03/04 05:11:20;;;;;;;22.13;12.55;;;;;;;9.36;59.86;102283.48;1762846;81;21117;-46
2021/03/04 05:13:50;;;;;;;19.98;12.58;;;;;;;9.39;59.96;102278.33;1707829;83;21337;-46
2021/03/04 05:16:18;;;;;;;21.90;13.18;;;;;;;9.38;60.00;102276.57;1768473;81;21565;-46
2021/03/04 05:18:47;;;;;;;23.85;14.75;;;;;;;9.36;60.13;102265.30;1767191;81;21145;-46
2021/03/04 05:21:17;;;;;;;23.62;13.40;;;;;;;9.35;60.27;102273.97;1706012;84;21128;-47
2021/03/04 05:23:46;;;;;;;24.45;13.03;;;;;;;9.36;60.45;102265.30;1765785;81;21720;-47
2021/03/04 05:26:15;;;;;;;20.92;13.43;;;;;;;9.41;60.64;102267.94;1708109;84;21687;-48
2021/03/04 05:28:43;;;;;;;20.30;12.33;;;;;;;9.45;60.56;102260.18;1766389;81;21189;-47
2021/03/04 05:31:12;;;;;;;26.15;13.85;;;;;;;9.50;60.51;102271.45;1774557;81;21145;-46
2021/03/04 05:33:40;;;;;;;20.88;13.22;;;;;;;9.50;60.47;102266.71;1765021;81;21588;-46
2021/03/04 05:36:09;;;;;;;23.98;13.30;;;;;;;9.53;60.53;102261.09;1708883;83;21727;-46
2021/03/04 05:38:39;;;;;;;21.65;12.65;;;;;;;9.55;60.62;102258.08;1764677;81;21132;-46
2021/03/04 05:41:08;;;;;;;20.10;12.60;;;;;;;9.56;60.73;102255.90;1771783;81;21137;-46
2021/03/04 05:43:37;;;;;;;20.23;12.53;;;;;;;9.62;60.61;102249.44;1709190;84;21226;-46
2021/03/04 05:46:06;;;;;;;23.20;13.28;;;;;;;9.63;60.55;102248.59;1769967;81;21609;-46
2021/03/04 05:48:34;;;;;;;22.42;12.58;;;;;;;9.64;60.53;102245.58;1709632;84;21160;-46
2021/03/04 05:51:05;;;;;;;20.23;12.95;;;;;;;9.66;60.52;102246.03;1767355;80;21282;-46
2021/03/04 05:53:34;;;;;;;20.17;12.80;;;;;;;9.69;60.65;102242.12;1768762;81;21169;-46
2021/03/04 05:56:03;;;;;;;22.37;12.55;;;;;;;9.74;60.63;102236.96;1776647;81;21346;-46
2021/03/04 05:58:31;;;;;;;21.90;13.28;;;;;;;9.75;60.54;102236.08;1772138;81;21160;-46
2021/03/04 06:00:59;;;;;;;19.57;11.88;;;;;;;9.76;60.57;102238.71;1769931;81;21322;-46
2021/03/04 06:03:28;;;;;;;20.30;12.65;;;;;;;9.75;60.59;102241.28;1757138;81;21299;-46
2021/03/04 06:05:57;;;;;;;19.10;12.33;;;;;;;9.76;60.68;102243.03;1708966;84;21143;-46
2021/03/04 06:08:25;;;;;;;22.70;12.50;;;;;;;9.80;60.59;102243.06;1765022;80;21534;-46
2021/03/04 06:10:54;;;;;;;21.68;12.07;;;;;;;9.83;60.71;102240.46;1709008;84;21289;-46
2021/03/04 06:13:24;;;;;;;22.20;13.38;;;;;;;9.91;60.92;102230.55;1764732;80;21695;-46
2021/03/04 06:15:53;;;;;;;23.83;13.18;;;;;;;10.09;60.92;102225.41;1709365;84;21609;-46
2021/03/04 06:18:21;;;;;;;19.27;11.90;;;;;;;10.34;60.49;102228.56;1774125;80;21196;-46
2021/03/04 06:20:50;;;;;;;23.35;12.82;;;;;;;10.55;60.06;102223.41;1766196;81;21304;-46
2021/03/04 06:23:24;;;;;;;21.30;12.40;;;;;;;10.79;59.58;102231.24;1763916;81;21341;-46
2021/03/04 06:25:52;;;;;;;20.55;13.20;;;;;;;11.05;58.97;102226.02;1701005;84;21179;-46
2021/03/04 06:28:27;;;;;;;23.92;12.88;;;;;;;11.31;58.04;102227.73;1763993;81;21145;-46
2021/03/04 06:30:55;;;;;;;17.42;11.18;;;;;;;11.50;57.29;102219.91;1683616;84;21775;-46
2021/03/04 06:33:34;;;;;;;18.45;12.35;;;;;;;11.61;56.70;102215.52;1716776;83;21163;-46
2021/03/04 06:36:14;;;;;;;19.52;13.08;;;;;;;11.66;56.54;102211.17;1681621;85;21609;-46
2021/03/04 06:38:56;;;;;;;22.30;14.47;;;;;;;11.76;56.30;102207.69;1756319;79;28802;-47
2021/03/04 06:41:24;;;;;;;18.87;12.53;;;;;;;11.76;56.28;102210.30;1732653;82;21576;-47
2021/03/04 06:44:02;;;;;;;20.82;12.43;;;;;;;11.84;55.98;102210.70;1741565;82;21148;-46
2021/03/04 06:46:46;;;;;;;18.92;13.08;;;;;;;11.90;55.93;102211.98;1737781;82;21144;-46
2021/03/04 06:49:16;;;;;;;18.73;11.35;;;;;;;11.97;55.92;102201.93;1741074;80;21109;-47
2021/03/04 06:51:45;;;;;;;18.55;11.38;;;;;;;12.12;55.60;102195.77;1737065;82;21152;-47
2021/03/04 06:54:23;;;;;;;24.30;12.70;;;;;;;12.24;55.38;102199.66;1737657;80;21117;-46
2021/03/04 06:56:52;;;;;;;25.02;12.65;;;;;;;12.39;55.11;102203.88;1739637;82;21191;-46
2021/03/04 06:59:21;;;;;;;20.80;11.80;;;;;;;12.53;54.73;102198.16;1741204;82;21294;-47
2021/03/04 07:01:50;;;;;;;18.37;11.57;;;;;;;12.62;54.51;102195.03;1738169;82;21156;-47
2021/03/04 07:04:19;;;;;;;21.70;12.10;;;;;;;12.74;54.02;102194.94;1736722;82;21275;-48
2021/03/04 07:06:47;;;;;;;16.35;10.50;;;;;;;12.81;53.67;102190.11;1736719;82;21605;-46
2021/03/04 07:09:15;;;;;;;20.17;11.93;;;;;;;12.83;53.66;102171.37;1742393;82;21350;-46
2021/03/04 07:11:44;;;;;;;23.02;11.40;;;;;;;12.86;53.44;102178.28;1731924;82;21125;-47
2021/03/04 07:14:13;;;;;;;20.97;11.90;;;;;;;12.85;53.24;102167.00;1738456;82;21161;-46
2021/03/04 07:16:45;;;;;;;18.27;11.93;;;;;;;12.79;53.29;102168.78;1733650;82;21192;-47
2021/03/04 07:19:16;;;;;;;21.62;11.75;;;;;;;12.70;53.57;102177.56;1741211;82;21755;-47
2021/03/04 07:21:48;;;;;;;24.55;12.40;;;;;;;12.62;53.68;102184.59;1737045;82;21117;-46
2021/03/04 07:24:16;;;;;;;20.30;11.93;;;;;;;12.53;53.90;102178.12;1737387;82;21164;-46
2021/03/04 07:26:46;;;;;;;16.57;10.85;;;;;;;12.43;54.08;102171.23;1741217;81;21172;-46
2021/03/04 07:29:15;;;;;;;18.07;11.63;;;;;;;12.35;54.29;102179.55;1739799;82;21329;-47
2021/03/04 07:31:43;;;;;;;21.82;12.28;;;;;;;12.26;54.39;102165.27;1738842;82;21583;-47
2021/03/04 07:34:14;;;;;;;19.35;11.10;;;;;;;12.18;54.65;102158.78;1737095;82;21148;-46
2021/03/04 07:36:49;;;;;;;20.45;11.60;;;;;;;12.01;55.07;102150.63;1740707;82;21180;-47
2021/03/04 07:39:30;;;;;;;19.95;11.90;;;;;;;11.94;55.49;102150.22;1725665;82;21140;-47
2021/03/04 07:41:58;;;;;;;22.45;12.07;;;;;;;11.91;55.63;102146.34;1727581;82;21148;-46
2021/03/04 07:44:31;;;;;;;14.15;10.43;;;;;;;11.85;55.47;102143.30;1720050;82;21323;-46
2021/03/04 07:47:06;;;;;;;21.75;12.20;;;;;;;11.74;55.73;102137.72;1731338;81;21161;-46
2021/03/04 07:49:45;;;;;;;20.15;10.65;;;;;;;11.59;56.32;102123.41;1809796;79;22950;-47
2021/03/04 07:52:24;;;;;;;19.75;11.33;;;;;;;11.52;56.41;102123.86;1770440;80;21258;-47
2021/03/04 07:54:54;;;;;;;18.02;10.85;;;;;;;11.48;56.68;102120.41;1777541;80;21310;-46
2021/03/04 07:57:24;;;;;;;21.12;11.53;;;;;;;11.46;56.90;102118.24;1776746;80;21116;-46
2021/03/04 07:59:56;;;;;;;16.75;10.23;;;;;;;11.48;56.89;102124.32;1773899;80;21176;-46
2021/03/04 08:02:29;;;;;;;18.82;11.50;;;;;;;11.49;56.90;102121.28;1774020;80;21290;-47
2021/03/04 08:05:15;;;;;;;24.00;11.38;;;;;;;11.48;56.93;102115.20;1775986;80;21302;-46
2021/03/04 08:07:50;;;;;;;22.22;11.78;;;;;;;11.48;56.83;102106.08;1780029;80;21129;-47
2021/03/04 08:10:22;;;;;;;21.57;11.60;;;;;;;11.44;56.86;102106.96;1779984;80;21125;-46
2021/03/04 08:12:54;;;;;;;20.80;11.75;;;;;;;11.38;57.07;102093.95;1770577;80;21317;-47
2021/03/04 08:15:33;;;;;;;25.90;12.18;;;;;;;11.34;57.34;102092.23;1776973;80;21214;-47
2021/03/04 08:18:03;;;;;;;19.17;11.95;;;;;;;11.34;57.55;102092.23;1774916;80;21168;-47
2021/03/04 08:20:31;;;;;;;18.32;11.00;;;;;;;11.35;57.41;102087.89;1776558;80;21164;-46
2021/03/04 08:23:00;;;;;;;20.15;11.55;;;;;;;11.32;57.40;102080.95;1777453;80;21132;-46
2021/03/04 08:25:30;;;;;;;24.23;11.78;;;;;;;11.33;57.52;102085.27;1777865;80;21156;-47
2021/03/04 08:27:59;;;;;;;24.87;11.95;;;;;;;11.32;57.94;102078.77;1776981;80;21184;-46
2021/03/04 08:30:40;;;;;;;25.00;12.28;;;;;;;11.39;57.86;102064.86;1773651;80;21184;-46
2021/03/04 08:33:12;;;;;;;20.70;11.93;;;;;;;11.48;57.60;102060.05;1773495;80;21569;-46
2021/03/04 08:38:21;;;;;;;23.77;12.78;;;;;;;11.45;57.40;102042.25;1813453;79;22954;-47
2021/03/04 08:40:52;;;;;;;20.37;12.05;;;;;;;11.37;57.55;102043.15;1786511;80;21155;-47
2021/03/04 08:43:26;;;;;;;20.52;11.73;;;;;;;11.34;57.75;102039.23;1779918;80;21180;-46
2021/03/04 08:46:01;;;;;;;19.95;10.53;;;;;;;11.30;57.87;102043.61;1778566;80;21298;-47
2021/03/04 08:48:30;;;;;;;18.98;11.33;;;;;;;11.26;58.01;102045.80;1777719;80;22498;-47
2021/03/04 08:51:03;;;;;;;19.85;11.80;;;;;;;11.21;58.20;102037.12;1778622;80;21171;-47
2021/03/04 08:53:32;;;;;;;18.52;11.08;;;;;;;11.18;58.36;102034.55;1749886;81;21630;-48
2021/03/04 08:56:02;;;;;;;19.20;10.65;;;;;;;11.20;58.43;102035.41;1775054;80;21113;-47
2021/03/04 08:58:32;;;;;;;17.80;11.33;;;;;;;11.21;58.47;102025.39;1781176;80;21628;-47
2021/03/04 09:01:03;;;;;;;22.93;12.00;;;;;;;11.22;58.74;102025.84;1780021;80;21576;-47
2021/03/04 09:03:43;;;;;;;22.37;12.70;;;;;;;11.28;58.66;102012.78;1777712;80;21204;-47
2021/03/04 09:06:16;;;;;;;21.27;12.00;;;;;;;11.35;58.49;102008.41;1776981;80;21167;-47
2021/03/04 09:08:47;;;;;;;19.92;11.18;;;;;;;11.37;58.41;101990.56;1763066;80;21282;-48
2021/03/04 09:11:35;;;;;;;21.55;11.10;;;;;;;11.41;58.36;101989.70;1779208;80;21132;-47
2021/03/04 09:14:09;;;;;;;22.10;11.18;;;;;;;11.46;58.35;101984.02;1775764;80;21167;-47
2021/03/04 09:16:45;;;;;;;19.73;11.40;;;;;;;11.51;58.27;101984.42;1777031;80;21147;-47
2021/03/04 09:19:35;;;;;;;21.37;11.85;;;;;;;11.54;58.23;101972.69;1775520;80;21175;-47
2021/03/04 09:22:09;;;;;;;22.85;10.68;;;;;;;11.52;58.36;101983.56;1775186;80;21188;-48
2021/03/04 09:24:40;;;;;;;19.90;9.88;;;;;;;11.52;58.33;101975.74;1710168;83;21315;-47
2021/03/04 09:27:09;;;;;;;23.90;11.95;;;;;;;11.54;58.26;101975.30;1709247;83;21169;-47
2021/03/04 09:29:40;;;;;;;15.68;10.25;;;;;;;11.56;58.25;101970.94;1723980;83;21126;-47
2021/03/04 09:32:09;;;;;;;26.45;12.28;;;;;;;11.59;58.25;101964.38;1711344;83;21606;-47
2021/03/04 09:34:42;;;;;;;20.52;11.57;;;;;;;11.63;58.18;101959.58;1711408;83;21283;-48
2021/03/04 09:37:16;;;;;;;27.50;12.30;;;;;;;11.67;58.08;101957.41;1712332;83;21121;-47
2021/03/04 09:39:51;;;;;;;23.85;11.35;;;;;;;11.69;58.01;101947.83;1804361;79;23085;-47
2021/03/04 09:42:21;;;;;;;19.40;10.78;;;;;;;11.61;58.11;101944.38;1786216;80;21726;-47
2021/03/04 09:44:55;;;;;;;21.07;10.80;;;;;;;11.61;58.26;101940.04;1780899;80;21330;-47
2021/03/04 09:47:26;;;;;;;26.07;12.10;;;;;;;11.60;58.28;101943.97;1782255;80;21580;-46
2021/03/04 09:49:56;;;;;;;20.65;11.63;;;;;;;11.58;58.37;101932.69;1781997;80;21545;-46
2021/03/04 09:52:26;;;;;;;27.58;11.75;;;;;;;11.56;58.30;101930.53;1783974;80;21151;-47
2021/03/04 09:55:15;;;;;;;25.57;12.30;;;;;;;11.51;58.43;101917.52;1721786;83;21151;-46
2021/03/04 09:57:45;;;;;;;21.55;11.33;;;;;;;11.47;58.56;101913.21;1737340;81;21188;-46
2021/03/04 10:00:18;;;;;;;21.12;11.08;;;;;;;11.47;58.68;101917.13;1713157;83;21170;-46
2021/03/04 10:02:49;;;;;;;26.30;12.47;;;;;;;11.47;58.68;101914.52;1747117;81;21165;-47
2021/03/04 10:05:23;;;;;;;21.77;12.45;;;;;;;11.45;58.81;101911.05;1725597;83;21609;-46
2021/03/04 10:07:56;;;;;;;25.32;12.68;;;;;;;11.44;58.80;101915.39;1623161;88;21657;-48
2021/03/04 10:10:41;;;;;;;23.12;11.90;;;;;;;11.43;58.93;101905.86;1617407;88;21334;-46
2021/03/04 10:13:10;;;;;;;20.80;12.58;;;;;;;11.47;58.88;101909.30;1624405;88;21236;-46
2021/03/04 10:15:42;;;;;;;25.25;12.47;;;;;;;11.50;59.04;101907.12;1623817;88;21190;-46
2021/03/04 10:18:15;;;;;;;21.05;11.08;;;;;;;11.54;58.94;101899.70;1623673;88;21203;-47
2021/03/04 10:20:46;;;;;;;26.00;11.70;;;;;;;11.60;58.73;101907.05;1624762;88;21346;-47
2021/03/04 10:23:16;;;;;;;22.25;11.93;;;;;;;11.63;58.65;101902.22;1620661;88;21758;-47
2021/03/04 10:25:46;;;;;;;22.80;12.80;;;;;;;11.65;58.52;101899.16;1624690;86;21190;-48
2021/03/04 10:28:14;;;;;;;23.40;12.18;;;;;;;11.68;58.43;101896.58;1626043;88;21199;-47
2021/03/04 10:30:42;;;;;;;29.20;12.33;;;;;;;11.71;58.42;101891.32;1621426;88;21200;-46
2021/03/04 10:33:13;;;;;;;21.57;11.85;;;;;;;11.75;58.35;101888.68;1625818;88;21199;-46
2021/03/04 10:35:42;;;;;;;25.05;11.75;;;;;;;11.80;58.17;101888.65;1644436;86;21192;-46
2021/03/04 10:38:10;;;;;;;17.60;10.90;;;;;;;11.82;58.03;101881.67;1679872;85;21214;-46
2021/03/04 10:40:40;;;;;;;21.42;11.78;;;;;;;11.83;57.89;101884.72;1678215;85;21132;-48
2021/03/04 10:43:10;;;;;;;21.57;10.53;;;;;;;11.82;57.81;101879.94;1672054;85;21208;-47
2021/03/04 10:45:39;;;;;;;23.30;10.70;;;;;;;11.80;57.83;101871.70;1675220;85;21171;-47
2021/03/04 10:48:09;;;;;;;20.02;10.58;;;;;;;11.79;57.94;101864.73;1675316;85;21348;-47
2021/03/04 10:50:38;;;;;;;20.57;11.33;;;;;;;11.79;57.94;101860.83;1672779;85;21219;-47
2021/03/04 10:53:06;;;;;;;22.35;10.75;;;;;;;11.79;57.88;101860.83;1676963;85;21184;-47
2021/03/04 10:55:36;;;;;;;18.27;10.00;;;;;;;11.79;57.83;101861.70;1669049;85;21177;-49
2021/03/04 10:58:05;;;;;;;20.00;10.43;;;;;;;11.81;57.83;101853.89;1674842;85;21185;-45
2021/03/04 11:00:33;;;;;;;24.35;10.35;;;;;;;11.85;57.77;101845.16;1680203;85;21188;-46
2021/03/04 11:03:02;;;;;;;20.57;11.33;;;;;;;11.86;57.84;101836.43;1677991;85;21231;-45
2021/03/04 11:05:31;;;;;;;22.13;11.85;;;;;;;11.90;57.76;101826.39;1749770;81;21165;-46
2021/03/04 11:08:00;;;;;;;21.20;11.43;;;;;;;11.91;57.59;101816.41;1763545;81;21129;-45
2021/03/04 11:10:29;;;;;;;24.82;11.55;;;;;;;11.91;57.62;101816.41;1752679;81;21295;-46
2021/03/04 11:12:58;;;;;;;21.25;11.30;;;;;;;11.93;57.56;101808.12;1774659;81;21302;-46
2021/03/04 11:15:26;;;;;;;20.62;11.38;;;;;;;11.94;57.62;101795.48;1769813;81;21189;-46
2021/03/04 11:17:54;;;;;;;24.55;11.68;;;;;;;11.98;57.75;101788.05;1765192;81;21609;-46
2021/03/04 11:20:25;;;;;;;21.70;11.68;;;;;;;12.04;57.71;101776.23;1764999;81;21192;-46
2021/03/04 11:22:53;;;;;;;21.95;12.65;;;;;;;12.13;57.39;101770.92;1708173;84;21754;-46
2021/03/04 11:25:22;;;;;;;21.02;11.63;;;;;;;12.17;57.19;101771.31;1763387;81;21154;-46
2021/03/04 11:27:51;;;;;;;23.77;11.80;;;;;;;12.20;56.94;101772.56;1774134;81;21144;-46
2021/03/04 11:30:21;;;;;;;20.70;11.03;;;;;;;12.18;56.96;101766.50;1769792;81;21172;-45
2021/03/04 11:32:49;;;;;;;23.27;11.40;;;;;;;12.15;57.05;101757.42;1778307;81;21113;-45